Data for 07/06/2005

Time Sea-Level Adjusted Pressure Absolute Pressure Temperature Relative Humidity Dew Point   
(mb) (inHg) (mb) (inHg) (C) (F) (%) (C) (F)
00:05 1017 30.03 846 24.98 19 66.1 46 7.2 44.9
00:10 1017 30.03 846 24.98 18.9 66.1 45 6.8 44.2
00:15 1017 30.03 846 24.98 18.8 65.8 45 6.7 44.1
00:20 1017 30.03 846 24.98 18.9 66 44 6.5 43.7
00:25 1017 30.03 847 25.01 18.8 65.8 45 6.7 44.1
00:30 1018 30.06 847 25.01 18.5 65.3 48 7.5 45.5
00:35 1018 30.06 847 25.01 17.9 64.3 46 6.3 43.3
00:40 1018 30.06 847 25.01 17.6 63.6 46 5.9 42.7
00:45 1018 30.06 847 25.01 17.8 64 47 6.5 43.7
00:50 1018 30.06 847 25.01 18.2 64.8 46 6.4 43.5
00:55 1018 30.06 847 25.01 18.5 65.2 45 6.3 43.3
01:00 1018 30.06 847 25.01 18.6 65.6 43 6 42.8
01:05 1018 30.06 847 25.01 18.2 64.8 47 7 44.5
01:10 1018 30.06 847 25.01 17.2 62.9 48 6.2 43.2
01:15 1018 30.06 847 25.01 17 62.5 48 6 42.9
01:20 1018 30.06 847 25.01 16.9 62.3 47 5.5 41.8
01:25 1018 30.06 847 25.01 16.7 62 49 5.9 42.6
01:30 1017 30.03 847 25.01 16.6 61.9 45 4.7 40.5
01:35 1017 30.03 847 25.01 16.7 62.1 49 6 42.8
01:40 1018 30.06 847 25.01 17 62.7 43 4.4 39.9
01:45 1018 30.06 847 25.01 17 62.6 44 4.7 40.4
01:50 1018 30.06 847 25.01 16.7 62.1 45 4.8 40.7
01:55 1017 30.03 847 25.01 16.5 61.7 48 5.7 42.3
02:00 1017 30.03 847 25.01 16.6 61.9 49 5.9 42.6
02:05 1018 30.06 847 25.01 16.8 62.2 45 4.9 40.8
02:10 1017 30.03 847 25.01 16.7 62 43 4.3 39.7
02:15 1017 30.03 847 25.01 16.6 61.8 45 4.6 40.3
02:20 1017 30.03 847 25.01 16.5 61.6 44 4.2 39.6
02:25 1017 30.03 847 25.01 16.3 61.4 46 4.8 40.6
02:30 1018 30.06 847 25.01 15.9 60.6 48 4.9 40.8
02:35 1017 30.03 847 25.01 15.6 60.1 48 4.6 40.3
02:40 1017 30.03 847 25.01 15.5 59.8 49 4.8 40.7
02:45 1018 30.06 847 25.01 15.5 59.9 47 4.5 40
02:50 1018 30.06 847 25.01 15.4 59.7 48 4.7 40.4
02:55 1018 30.06 847 25.01 15.5 59.9 49 4.8 40.7
03:00 1018 30.06 847 25.01 15.7 60.2 46 4.3 39.8
03:05 1017 30.03 847 25.01 15.7 60.2 48 4.7 40.4
03:10 1017 30.03 847 25.01 15.4 59.7 50 5 41.1
03:15 1017 30.03 847 25.01 15.9 60.6 49 5.2 41.3
03:20 1017 30.03 847 25.01 15.7 60.2 50 5.3 41.5
03:25 1017 30.03 847 25.01 15.7 60.2 49 5.2 41.3
03:30 1017 30.03 847 25.01 15.6 60.1 50 5.3 41.5
03:35 1017 30.03 847 25.01 15.3 59.5 51 5.2 41.4
03:40 1017 30.03 847 25.01 15.3 59.5 50 5.1 41.1
03:45 1017 30.03 847 25.01 15.4 59.7 50 5 41.1
03:50 1017 30.03 847 25.01 15.4 59.7 49 4.9 40.7
03:55 1017 30.03 847 25.01 15.7 60.2 47 4.7 40.4
04:00 1017 30.03 847 25.01 16 60.7 47 4.6 40.3
04:05 1017 30.03 847 25.01 15.9 60.7 46 4.4 39.9
04:10 1017 30.03 847 25.01 16.1 60.9 45 4.3 39.8
04:15 1017 30.03 847 25.01 16.1 61 45 4.3 39.8
04:20 1017 30.03 847 25.01 16.1 61 46 4.6 40.4
04:25 1017 30.03 847 25.01 15.6 60 49 4.9 40.8
04:30 1017 30.03 847 25.01 15.3 59.5 49 4.8 40.6
04:35 1017 30.03 847 25.01 14.8 58.7 51 5 40.9
04:40 1017 30.03 847 25.01 14.4 57.9 53 5.2 41.3
04:45 1017 30.03 847 25.01 14.2 57.6 54 5.2 41.4
04:50 1017 30.03 847 25.01 14.3 57.7 53 4.8 40.6
04:55 1017 30.03 847 25.01 14.8 58.6 52 5 40.9
05:00 1017 30.03 847 25.01 14.8 58.7 51 4.8 40.7
05:05 1018 30.06 847 25.01 14.6 58.3 52 5 40.9
05:10 1018 30.06 847 25.01 14.7 58.4 51 4.7 40.5
05:15 1018 30.06 847 25.01 15 58.9 49 4.4 40
05:20 1018 30.06 847 25.01 15.1 59.1 49 4.7 40.4
05:25 1018 30.06 847 25.01 14.9 58.7 51 5 41
05:30 1018 30.06 847 25.01 14.5 58 53 5 41
05:35 1018 30.06 847 25.01 14.1 57.4 55 5.3 41.5
05:40 1018 30.06 847 25.01 14.4 57.9 53 4.9 40.8
05:45 1018 30.06 847 25.01 14.5 58.1 52 4.7 40.5
05:50 1018 30.06 847 25.01 14.9 58.8 50 4.7 40.5
05:55 1018 30.06 847 25.01 14.8 58.6 52 5.1 41.1
06:00 1018 30.06 847 25.01 14.5 58.2 53 5 41
06:05 1018 30.06 847 25.01 14.3 57.8 54 5.2 41.4
06:10 1018 30.06 847 25.01 14.1 57.4 55 5.2 41.3
06:15 1018 30.06 847 25.01 14 57.2 55 5.2 41.3
06:20 1018 30.06 847 25.01 14 57.2 56 5.3 41.6
06:25 1018 30.06 847 25.01 14.1 57.3 55 5.3 41.5
06:30 1018 30.06 847 25.01 14.1 57.4 55 5.4 41.7
06:35 1018 30.06 847 25.01 14.1 57.4 55 5.3 41.5
06:40 1018 30.06 847 25.01 14.5 58.1 54 5.3 41.6
06:45 1018 30.06 847 25.01 14.5 58.1 55 5.6 42
06:50 1018 30.06 847 25.01 14.4 58 55 5.5 41.8
06:55 1018 30.06 847 25.01 14.6 58.2 56 6.1 42.9
07:00 1018 30.06 847 25.01 14.8 58.6 54 5.6 42
07:05 1018 30.06 847 25.01 15 58.9 54 5.8 42.4
07:10 1018 30.06 847 25.01 15.2 59.3 54 5.9 42.7
07:15 1018 30.06 847 25.01 15.4 59.8 53 6 42.7
07:20 1018 30.06 847 25.01 15.8 60.4 53 6.4 43.4
07:25 1018 30.06 847 25.01 15.8 60.5 54 6.7 44
07:30 1018 30.06 847 25.01 16 60.8 59 8.1 46.6
07:35 1018 30.06 847 25.01 16.3 61.4 53 6.8 44.2
07:40 1018 30.06 847 25.01 16.2 61.2 54 7 44.6
07:45 1018 30.06 847 25.01 16.2 61.2 53 6.9 44.4
07:50 1018 30.06 847 25.01 16.5 61.7 52 6.6 44
07:55 1018 30.06 847 25.01 16.8 62.3 52 7.1 44.8
08:00 1018 30.06 847 25.01 17.1 62.7 52 7.1 44.8
08:05 1018 30.06 847 25.01 17.6 63.6 50 7.3 45.1
08:10 1018 30.06 847 25.01 18 64.3 50 7.4 45.3
08:15 1018 30.06 847 25.01 18.4 65.2 51 8.2 46.7
08:20 1018 30.06 847 25.01 18.9 66 47 7.3 45.2
08:25 1018 30.06 847 25.01 19.6 67.2 45 7.4 45.4
08:30 1018 30.06 847 25.01 20 68 42 6.8 44.3
08:35 1018 30.06 847 25.01 20.7 69.2 41 7 44.7
08:40 1018 30.06 847 25.01 21.1 70 40 7.2 45
08:45 1018 30.06 847 25.01 21.2 70.1 42 7.8 46.1
08:50 1018 30.06 847 25.01 21.3 70.4 43 8.4 47.1
08:55 1018 30.06 847 25.01 21.5 70.6 45 9.1 48.4
09:00 1018 30.06 847 25.01 21.4 70.4 44 8.7 47.6
09:05 1018 30.06 847 25.01 21.8 71.2 42 8.6 47.5
09:10 1018 30.06 847 25.01 21.5 70.6 41 7.9 46.1
09:15 1018 30.06 847 25.01 21.5 70.6 41 7.8 46
09:20 1018 30.06 847 25.01 21.2 70.1 43 8.2 46.7
09:25 1018 30.06 847 25.01 21.7 71 41 8 46.4
09:30 1018 30.06 847 25.01 21.9 71.3 40 8 46.4
09:35 1018 30.06 847 25.01 21.6 70.8 42 8.3 46.9
09:40 1018 30.06 847 25.01 22.2 72 39 7.7 45.8
09:45 1018 30.06 847 25.01 23 73.4 38 8.1 46.6
09:50 1018 30.06 847 25.01 23.7 74.6 38 8.6 47.4
09:55 1018 30.06 847 25.01 23.6 74.5 38 8.8 47.9
10:00 1018 30.06 847 25.01 23.7 74.7 37 8.3 46.9
10:05 1018 30.06 847 25.01 23.7 74.6 35 7.3 45.2
10:10 1018 30.06 847 25.01 23.9 74.9 36 8.3 46.9
10:15 1018 30.06 847 25.01 24.5 76 34 7.8 46.1
10:20 1018 30.06 847 25.01 24.7 76.5 34 8.1 46.6
10:25 1018 30.06 847 25.01 24.9 76.8 34 8.3 47
10:30 1018 30.06 847 25.01 25.1 77.2 33 8.1 46.6
10:35 1018 30.06 847 25.01 25.2 77.4 30 6.8 44.2
10:40 1017 30.03 847 25.01 25.2 77.3 31 7.3 45.1
10:45 1017 30.03 847 25.01 24.7 76.4 32 7.1 44.8
10:50 1017 30.03 847 25.01 25.4 77.7 29 6.1 43
10:55 1017 30.03 847 25.01 25.9 78.7 29 6.7 44
11:00 1017 30.03 847 25.01 25.6 78.1 31 7.4 45.3
11:05 1017 30.03 847 25.01 25.8 78.5 29 6.9 44.5
11:10 1017 30.03 847 25.01 26.4 79.5 28 6.9 44.4
11:15 1017 30.03 847 25.01 26.4 79.5 28 6.5 43.6
11:20 1017 30.03 847 25.01 26.6 79.8 27 6 42.9
11:25 1017 30.03 847 25.01 26.4 79.5 27 6.3 43.4
11:30 1017 30.03 847 25.01 26.9 80.5 26 6.2 43.1
11:35 1017 30.03 846 24.98 27.1 80.7 26 6 42.8
11:40 1017 30.03 846 24.98 26.4 79.4 27 6 42.7
11:45 1017 30.03 846 24.98 27.1 80.9 25 6 42.8
11:50 1017 30.03 846 24.98 27.9 82.2 25 6.5 43.7
11:55 1017 30.03 846 24.98 27.7 81.9 26 6.5 43.7
12:00 1017 30.03 846 24.98 27.6 81.6 26 6.7 44
12:05 1017 30.03 846 24.98 28.1 82.6 26 7.2 45
12:10 1017 30.03 846 24.98 27.9 82.2 27 7.2 45
12:15 1017 30.03 846 24.98 27.2 81 27 7 44.6
12:20 1017 30.03 846 24.98 28 82.4 26 7.2 44.9
12:25 1017 30.03 846 24.98 28 82.3 26 7 44.5
12:30 1017 30.03 846 24.98 27.6 81.7 27 7.2 44.9
12:35 1017 30.03 846 24.98 26.9 80.4 29 7.4 45.3
12:40 1017 30.03 846 24.98 26.9 80.4 29 7.5 45.6
12:45 1017 30.03 846 24.98 27 80.6 30 8.3 47
12:50 1017 30.03 846 24.98 26.3 79.3 31 8 46.3
12:55 1017 30.03 846 24.98 26.3 79.4 30 7.5 45.6
13:00 1017 30.03 846 24.98 26.9 80.3 29 7.7 45.9
13:05 1017 30.03 846 24.98 26.6 79.9 29 7.6 45.8
13:10 1017 30.03 846 24.98 27.1 80.9 29 8.1 46.5
13:15 1017 30.03 846 24.98 27.7 81.8 27 7.3 45.2
13:20 1017 30.03 846 24.98 28.1 82.7 27 7.9 46.2
13:25 1017 30.03 846 24.98 28.5 83.4 27 8 46.3
13:30 1017 30.03 846 24.98 28.1 82.6 27 7.8 46
13:35 1017 30.03 846 24.98 29.4 84.9 25 7.8 46
13:40 1017 30.03 846 24.98 29.9 85.7 25 7.8 46.1
13:45 1017 30.03 846 24.98 29.5 85 25 7.8 46
13:50 1016 30 846 24.98 28.7 83.6 25 7 44.6
13:55 1016 30 846 24.98 28.5 83.4 25 6.6 44
14:00 1016 30 846 24.98 29.5 85.1 24 6.9 44.4
14:05 1016 30 846 24.98 30.3 86.6 24 7.6 45.7
14:10 1016 30 846 24.98 30.4 86.8 23 7.3 45.1
14:15 1016 30 846 24.98 30.7 87.3 22 6.9 44.3
14:20 1016 30 845 24.95 30.7 87.3 21 6.2 43.2
14:25 1016 30 845 24.95 31 87.9 21 6.3 43.3
14:30 1016 30 845 24.95 30.8 87.5 21 6.2 43.2
14:35 1016 30 845 24.95 30.1 86.2 20 5.1 41.1
14:40 1016 30 845 24.95 29.7 85.5 21 5.2 41.4
14:45 1016 30 845 24.95 29.4 84.8 22 5.9 42.7
14:50 1016 30 845 24.95 30.1 86.2 21 5.8 42.5
14:55 1016 30 845 24.95 30.9 87.7 20 5.7 42.3
15:00 1016 30 845 24.95 30.7 87.3 21 6 42.8
15:05 1016 30 845 24.95 30.4 86.7 21 5.9 42.6
15:10 1016 30 845 24.95 30.7 87.2 19 5.1 41.1
15:15 1016 30 845 24.95 30.8 87.4 18 4 39.2
15:20 1015 29.97 845 24.95 30.8 87.4 18 4.1 39.4
15:25 1015 29.97 845 24.95 31.9 89.4 19 5.8 42.4
15:30 1015 29.97 845 24.95 32.7 90.9 17 5.1 41.1
15:35 1015 29.97 845 24.95 33 91.3 16 4.3 39.8
15:40 1015 29.97 845 24.95 32.2 90 18 5.4 41.6
15:45 1015 29.97 845 24.95 32 89.5 15 2.6 36.7
15:50 1015 29.97 844 24.92 31.7 89 14 1.6 35
15:55 1015 29.97 844 24.92 31.5 88.7 14 1 33.8
16:00 1015 29.97 844 24.92 31.6 88.8 15 2.6 36.6
16:05 1015 29.97 844 24.92 31.8 89.2 16 3.6 38.6
16:10 1015 29.97 844 24.92 31.3 88.3 15 2.3 36.1
16:15 1015 29.97 844 24.92 30.9 87.6 18 3.8 38.9
16:20 1015 29.97 844 24.92 30.6 87.1 18 4.3 39.8
16:25 1015 29.97 844 24.92 30.4 86.7 19 4.2 39.6
16:30 1015 29.97 844 24.92 29.9 85.9 19 3.9 39
16:35 1015 29.97 844 24.92 29.8 85.6 20 4.5 40.1
16:40 1015 29.97 844 24.92 30.2 86.4 19 4.7 40.4
16:45 1015 29.97 844 24.92 30.2 86.4 21 6.1 42.9
16:50 1015 29.97 844 24.92 29.9 85.8 21 5.5 41.9
16:55 1015 29.97 844 24.92 29.4 85 22 5.9 42.5
17:00 1015 29.97 844 24.92 29.7 85.4 20 4.7 40.5
17:05 1015 29.97 844 24.92 29.8 85.6 19 3.8 38.8
17:10 1015 29.97 844 24.92 30.3 86.5 18 3.5 38.2
17:15 1015 29.97 844 24.92 31.2 88.2 16 2.9 37.1
17:20 1015 29.97 844 24.92 31.6 88.8 16 2.8 37
17:25 1015 29.97 844 24.92 31.3 88.3 16 2.7 36.9
17:30 1014 29.94 844 24.92 31 87.8 18 4.3 39.7
17:35 1014 29.94 844 24.92 30.7 87.2 18 3.9 39.1
17:40 1014 29.94 844 24.92 30.2 86.4 18 3.4 38.1
17:45 1014 29.94 843 24.89 31.3 88.3 17 3.4 38
17:50 1014 29.94 843 24.89 31.5 88.7 16 3.5 38.2
17:55 1014 29.94 843 24.89 30.6 87.2 18 3.7 38.6
18:00 1014 29.94 843 24.89 30.8 87.4 18 4.1 39.4
18:05 1014 29.94 843 24.89 30.9 87.7 18 4.2 39.6
18:10 1014 29.94 843 24.89 30.4 86.8 19 4.3 39.7
18:15 1014 29.94 843 24.89 29.9 85.9 18 3.2 37.8
18:20 1014 29.94 843 24.89 29.5 85.1 18 3.4 38.1
18:25 1014 29.94 843 24.89 29.7 85.5 18 3.2 37.7
18:30 1014 29.94 843 24.89 30.1 86.1 18 3.2 37.8
18:35 1014 29.94 843 24.89 30.3 86.5 18 3.3 38
18:40 1014 29.94 843 24.89 30.4 86.8 20 5.5 41.9
18:45 1014 29.94 843 24.89 30.2 86.3 21 5.7 42.2
18:50 1014 29.94 843 24.89 29.9 85.9 23 6.7 44.1
18:55 1014 29.94 843 24.89 29.6 85.3 21 5.2 41.4
19:00 1014 29.94 843 24.89 29.4 85 20 4.5 40
19:05 1014 29.94 843 24.89 29.6 85.2 20 4.8 40.7
19:10 1014 29.94 843 24.89 29.3 84.8 23 6.5 43.6
19:15 1014 29.94 843 24.89 29.2 84.6 24 6.9 44.4
19:20 1014 29.94 843 24.89 29.3 84.7 26 8 46.3
19:25 1014 29.94 843 24.89 29 84.1 24 6.6 43.8
19:30 1014 29.94 843 24.89 28.8 83.9 24 6.8 44.3
19:35 1014 29.94 843 24.89 28.9 84 24 6.8 44.3
19:40 1014 29.94 843 24.89 28.8 83.9 26 7.5 45.6
19:45 1014 29.94 843 24.89 28.8 83.8 25 7.4 45.3
19:50 1014 29.94 843 24.89 28.6 83.5 25 6.9 44.5
19:55 1014 29.94 843 24.89 28.4 83.1 26 7.6 45.7
20:00 1014 29.94 843 24.89 28.3 82.9 27 7.9 46.3
20:05 1014 29.94 843 24.89 28.1 82.6 28 8.2 46.7
20:10 1014 29.94 843 24.89 28 82.4 28 8.2 46.8
20:15 1014 29.94 843 24.89 28 82.4 27 7.8 46
20:20 1014 29.94 843 24.89 27.8 82.1 29 8.4 47.1
20:25 1014 29.94 843 24.89 27.7 81.8 30 8.7 47.6
20:30 1014 29.94 843 24.89 27.5 81.5 29 8.3 47
20:35 1014 29.94 843 24.89 27.4 81.2 29 8.2 46.8
20:40 1014 29.94 843 24.89 27.3 81.2 30 8.7 47.7
20:45 1014 29.94 843 24.89 27.2 81 29 7.9 46.2
20:50 1014 29.94 843 24.89 27 80.6 30 8.1 46.6
20:55 1014 29.94 843 24.89 26.8 80.2 30 8.1 46.6
21:00 1014 29.94 843 24.89 26.5 79.8 31 8.4 47.1
21:05 1014 29.94 843 24.89 26.1 79 33 8.8 47.8
21:10 1014 29.94 843 24.89 25.9 78.6 35 9.6 49.3
21:15 1014 29.94 843 24.89 25.4 77.6 38 10.1 50.2
21:20 1014 29.94 843 24.89 24.9 76.8 39 10.2 50.3
21:25 1013 29.91 843 24.89 24.6 76.2 39 9.8 49.6
21:30 1013 29.91 843 24.89 24.2 75.5 38 9.1 48.3
21:35 1013 29.91 843 24.89 23.9 75 37 8.4 47.2
21:40 1014 29.94 843 24.89 23.9 75.1 37 8.5 47.4
21:45 1014 29.94 843 24.89 23.9 75.1 35 7.6 45.7
21:50 1014 29.94 843 24.89 23.7 74.7 36 7.9 46.2
21:55 1014 29.94 843 24.89 23.5 74.2 36 7.6 45.7
22:00 1014 29.94 843 24.89 23.4 74 35 7.1 44.8
22:05 1014 29.94 843 24.89 23.6 74.6 40 9.3 48.7
22:10 1014 29.94 843 24.89 23.8 74.9 35 7.6 45.6
22:15 1014 29.94 843 24.89 23.9 75 33 6.8 44.2
22:20 1014 29.94 843 24.89 23.7 74.6 35 7.5 45.5
22:25 1014 29.94 843 24.89 23.2 73.8 37 8 46.4
22:30 1014 29.94 843 24.89 23.7 74.6 31 5.6 42.2
22:35 1014 29.94 843 24.89 24.4 76 31 6.4 43.5
22:40 1014 29.94 843 24.89 24.4 76 34 8 46.3
22:45 1014 29.94 843 24.89 23.9 75.1 34 7.3 45.1
22:50 1014 29.94 843 24.89 24 75.2 32 6.4 43.6
22:55 1014 29.94 843 24.89 24.2 75.6 32 6.7 44.1
23:00 1014 29.94 843 24.89 24.3 75.7 32 6.6 43.9
23:05 1014 29.94 843 24.89 24.1 75.4 33 6.9 44.5
23:10 1014 29.94 843 24.89 23.9 75 32 6.3 43.3
23:15 1014 29.94 843 24.89 23.8 74.8 35 7.6 45.6
23:20 1014 29.94 843 24.89 22.9 73.2 35 6.7 44.1
23:25 1014 29.94 843 24.89 22.7 72.8 35 6.5 43.7
23:30 1014 29.94 843 24.89 22.6 72.7 34 6 42.8
23:35 1014 29.94 843 24.89 22.7 72.9 35 6.7 44.1
23:40 1014 29.94 843 24.89 22.5 72.5 35 6.3 43.3
23:45 1014 29.94 843 24.89 22.4 72.2 36 6.7 44
23:50 1014 29.94 843 24.89 22.4 72.2 35 6.2 43.1
23:55 1014 29.94 843 24.89 22.5 72.4 35 6.3 43.4
24:00 1014 29.94 844 24.92 22.3 72.2 36 6.7 44